createdAt,value
2018-12-12T00:00:08.473Z,7.20
2018-12-12T00:02:36.526Z,11.00
2018-12-12T00:05:04.600Z,9.50
2018-12-12T00:07:32.671Z,11.20
2018-12-12T00:10:00.736Z,11.13
2018-12-12T00:12:28.859Z,11.70
2018-12-12T00:14:56.893Z,9.30
2018-12-12T00:17:24.943Z,10.33
2018-12-12T00:19:53.011Z,11.60
2018-12-12T00:22:21.040Z,11.17
2018-12-12T00:24:49.117Z,8.90
2018-12-12T00:27:17.153Z,10.87
2018-12-12T00:29:45.228Z,9.13
2018-12-12T00:32:13.282Z,10.03
2018-12-12T00:34:41.344Z,10.23
2018-12-12T00:37:09.397Z,8.47
2018-12-12T00:39:37.424Z,7.23
2018-12-12T00:42:05.472Z,8.53
2018-12-12T00:44:33.536Z,7.67
2018-12-12T00:47:01.812Z,7.67
2018-12-12T00:49:29.845Z,9.53
2018-12-12T00:51:58.086Z,16.30
2018-12-12T00:54:26.161Z,7.13
2018-12-12T00:56:54.251Z,12.07
2018-12-12T00:59:22.281Z,8.57
2018-12-12T01:01:50.385Z,8.27
2018-12-12T01:04:18.455Z,8.23
2018-12-12T01:06:46.532Z,13.00
2018-12-12T01:09:14.592Z,13.10
2018-12-12T01:11:48.000Z,11.13
2018-12-12T01:14:16.066Z,12.00
2018-12-12T01:16:44.145Z,12.93
2018-12-12T01:19:12.279Z,9.50
2018-12-12T01:21:40.360Z,10.70
2018-12-12T01:24:08.390Z,11.77
2018-12-12T01:26:36.485Z,9.70
2018-12-12T01:29:04.535Z,14.00
2018-12-12T01:31:32.582Z,10.73
2018-12-12T01:34:00.662Z,12.10
2018-12-12T01:36:28.717Z,10.03
2018-12-12T01:38:56.759Z,9.90
2018-12-12T01:41:24.810Z,10.77
2018-12-12T01:43:52.867Z,7.83
2018-12-12T01:46:20.911Z,11.40
2018-12-12T01:48:48.972Z,10.17
2018-12-12T01:51:16.989Z,10.40
2018-12-12T01:53:47.041Z,11.43
2018-12-12T01:56:15.157Z,13.43
2018-12-12T01:58:43.218Z,17.73
2018-12-12T02:01:11.272Z,11.77
2018-12-12T02:03:39.342Z,8.80
2018-12-12T02:06:07.360Z,12.83
2018-12-12T02:08:35.417Z,12.33
2018-12-12T02:11:03.482Z,10.53
2018-12-12T02:13:35.488Z,10.63
2018-12-12T02:16:04.158Z,10.53
2018-12-12T02:18:32.765Z,12.40
2018-12-12T02:21:00.868Z,8.63
2018-12-12T02:23:28.901Z,11.97
2018-12-12T02:25:56.982Z,9.90
2018-12-12T02:28:25.013Z,13.37
2018-12-12T02:30:53.095Z,9.40
2018-12-12T02:33:21.133Z,10.37
2018-12-12T02:35:49.201Z,9.00
2018-12-12T02:38:17.269Z,10.27
2018-12-12T02:40:45.334Z,13.63
2018-12-12T02:43:13.386Z,12.63
2018-12-12T02:45:41.423Z,10.73
2018-12-12T02:48:09.494Z,17.37
2018-12-12T02:50:37.545Z,12.17
2018-12-12T02:53:05.611Z,9.80
2018-12-12T02:55:33.629Z,10.00
2018-12-12T02:58:01.669Z,11.07
2018-12-12T03:00:29.869Z,15.83
2018-12-12T03:02:58.020Z,10.37
2018-12-12T03:05:26.111Z,12.27
2018-12-12T03:07:54.166Z,10.03
2018-12-12T03:10:22.227Z,8.27
2018-12-12T03:12:50.277Z,10.23
2018-12-12T03:15:18.342Z,12.80
2018-12-12T03:17:46.391Z,12.53
2018-12-12T03:20:14.424Z,15.33
2018-12-12T03:22:42.533Z,9.87
2018-12-12T03:25:10.574Z,9.40
2018-12-12T03:27:38.641Z,14.20
2018-12-12T03:30:06.894Z,9.87
2018-12-12T03:32:34.991Z,12.97
2018-12-12T03:35:03.040Z,9.43
2018-12-12T03:37:31.119Z,13.27
2018-12-12T03:39:59.471Z,11.43
2018-12-12T03:42:28.132Z,10.83
2018-12-12T03:44:56.216Z,10.90
2018-12-12T03:47:24.298Z,10.63
2018-12-12T03:49:52.371Z,8.43
2018-12-12T03:52:20.409Z,8.83
2018-12-12T03:54:48.476Z,11.63
2018-12-12T03:57:16.508Z,10.10
2018-12-12T03:59:44.596Z,9.10
2018-12-12T04:02:12.679Z,8.00
2018-12-12T04:04:40.834Z,9.87
2018-12-12T04:07:08.920Z,10.90
2018-12-12T04:09:36.973Z,10.83
2018-12-12T04:12:05.049Z,10.93
2018-12-12T04:14:33.117Z,11.13
2018-12-12T04:17:01.173Z,7.93
2018-12-12T04:19:29.209Z,12.10
2018-12-12T04:21:57.378Z,11.23
2018-12-12T04:24:26.709Z,11.40
2018-12-12T04:26:54.759Z,10.80
2018-12-12T04:29:22.821Z,8.73
2018-12-12T04:31:50.900Z,12.17
2018-12-12T04:34:18.941Z,17.00
2018-12-12T04:36:46.979Z,9.13
2018-12-12T04:39:15.037Z,13.13
2018-12-12T04:41:43.125Z,11.53
2018-12-12T04:44:11.191Z,9.73
2018-12-12T04:46:39.273Z,9.47
2018-12-12T04:49:07.318Z,12.53
2018-12-12T04:51:35.383Z,11.60
2018-12-12T04:54:03.455Z,11.67
2018-12-12T04:56:31.505Z,12.77
2018-12-12T04:58:59.778Z,13.93
2018-12-12T05:01:27.848Z,14.00
2018-12-12T05:03:55.898Z,18.30
2018-12-12T05:06:23.970Z,14.30
2018-12-12T05:08:52.010Z,16.53
2018-12-12T05:11:20.078Z,11.20
2018-12-12T05:13:48.126Z,15.70
2018-12-12T05:16:16.165Z,16.23
2018-12-12T05:18:44.226Z,17.77
2018-12-12T05:21:12.272Z,15.87
2018-12-12T05:23:40.354Z,13.57
2018-12-12T05:26:08.396Z,17.60
2018-12-12T05:28:36.477Z,18.13
2018-12-12T05:31:04.550Z,16.80
2018-12-12T05:33:32.586Z,15.87
2018-12-12T05:36:00.661Z,17.40
2018-12-12T05:38:28.701Z,15.83
2018-12-12T05:40:56.742Z,18.30
2018-12-12T05:43:24.773Z,15.77
2018-12-12T05:45:52.856Z,18.90
2018-12-12T05:48:20.917Z,19.60
2018-12-12T05:50:48.975Z,35.63
2018-12-12T05:53:17.037Z,16.37
2018-12-12T05:55:45.123Z,23.97
2018-12-12T05:58:13.178Z,18.70
2018-12-12T06:00:41.243Z,17.07
2018-12-12T06:03:09.304Z,15.47
2018-12-12T06:05:37.351Z,18.37
2018-12-12T06:08:05.412Z,19.67
2018-12-12T06:10:33.474Z,18.60
2018-12-12T06:13:01.554Z,16.27
2018-12-12T06:15:29.609Z,17.97
2018-12-12T06:17:57.664Z,19.17
2018-12-12T06:20:25.738Z,20.43
2018-12-12T06:22:53.781Z,21.90
2018-12-12T06:25:21.862Z,25.00
2018-12-12T06:27:50.034Z,16.83
2018-12-12T06:30:18.119Z,20.37
2018-12-12T06:32:46.178Z,23.77
2018-12-12T06:35:14.258Z,20.10
2018-12-12T06:37:42.308Z,17.07
2018-12-12T06:40:10.373Z,21.27
2018-12-12T06:42:38.477Z,20.03
2018-12-12T06:45:06.515Z,21.90
2018-12-12T06:47:34.575Z,22.03
2018-12-12T06:50:02.641Z,19.23
2018-12-12T06:52:30.759Z,19.37
2018-12-12T06:54:58.839Z,22.13
2018-12-12T06:57:26.898Z,19.93
2018-12-12T06:59:54.973Z,24.73
2018-12-12T07:02:23.029Z,42.37
2018-12-12T07:04:51.135Z,23.57
2018-12-12T07:07:19.229Z,26.53
2018-12-12T07:09:47.296Z,17.23
2018-12-12T07:12:15.382Z,23.03
2018-12-12T07:14:43.472Z,22.20
2018-12-12T07:17:11.565Z,21.73
2018-12-12T07:19:39.607Z,23.77
2018-12-12T07:22:07.693Z,20.23
2018-12-12T07:24:35.725Z,20.53
2018-12-12T07:27:03.823Z,21.80
2018-12-12T07:29:31.923Z,20.83
2018-12-12T07:31:59.986Z,23.23
2018-12-12T07:34:28.063Z,22.97
2018-12-12T07:36:56.134Z,20.20
2018-12-12T07:39:24.196Z,23.20
2018-12-12T07:41:52.262Z,23.40
2018-12-12T07:44:20.318Z,24.67
2018-12-12T07:46:48.714Z,22.90
2018-12-12T07:49:17.032Z,37.93
2018-12-12T07:51:45.160Z,25.93
2018-12-12T07:54:13.198Z,23.57
2018-12-12T07:56:41.260Z,21.57
2018-12-12T07:59:09.334Z,25.20
2018-12-12T08:01:37.370Z,22.87
2018-12-12T08:04:05.440Z,18.77
2018-12-12T08:06:33.544Z,21.53
2018-12-12T08:09:01.610Z,24.77
2018-12-12T08:11:29.681Z,23.80
2018-12-12T08:13:57.787Z,22.00
2018-12-12T08:16:25.828Z,23.53
2018-12-12T08:18:53.891Z,22.63
2018-12-12T08:21:21.975Z,25.60
2018-12-12T08:23:50.015Z,22.93
2018-12-12T08:26:18.089Z,24.47
2018-12-12T08:28:46.156Z,24.40
2018-12-12T08:31:14.711Z,27.20
2018-12-12T08:33:42.799Z,26.33
2018-12-12T08:36:10.855Z,38.73
2018-12-12T08:38:38.979Z,137.37
2018-12-12T08:41:07.038Z,42.07
2018-12-12T08:43:35.094Z,35.77
2018-12-12T08:46:03.147Z,27.63
2018-12-12T08:48:31.204Z,32.03
2018-12-12T08:50:59.385Z,32.97
2018-12-12T08:53:27.506Z,29.60
2018-12-12T08:55:55.560Z,22.40
2018-12-12T08:58:23.640Z,24.57
2018-12-12T09:00:51.718Z,22.13
2018-12-12T09:03:19.798Z,24.00
2018-12-12T09:05:47.988Z,31.13
2018-12-12T09:08:16.071Z,24.60
2018-12-12T09:10:44.137Z,36.30
2018-12-12T09:13:12.192Z,25.87
2018-12-12T09:15:40.261Z,27.53
2018-12-12T09:18:08.344Z,28.00
2018-12-12T09:20:36.411Z,26.97
2018-12-12T09:23:04.488Z,25.57
2018-12-12T09:25:32.545Z,27.17
2018-12-12T09:28:00.631Z,26.87
2018-12-12T09:30:28.761Z,24.63
2018-12-12T09:32:56.801Z,26.93
2018-12-12T09:35:24.876Z,30.07
2018-12-12T09:37:52.948Z,26.37
2018-12-12T09:40:21.009Z,29.50
2018-12-12T09:42:49.109Z,29.17
2018-12-12T09:45:21.642Z,31.43
2018-12-12T09:47:47.262Z,27.17
2018-12-12T09:50:15.475Z,26.83
2018-12-12T09:52:43.607Z,26.67
2018-12-12T09:55:11.644Z,26.43
2018-12-12T09:57:39.741Z,27.80
2018-12-12T10:00:07.813Z,28.47
2018-12-12T10:02:35.855Z,24.73
2018-12-12T10:05:04.237Z,28.53
2018-12-12T10:07:32.282Z,23.70
2018-12-12T10:10:00.370Z,25.90
2018-12-12T10:12:28.424Z,27.83
2018-12-12T10:14:56.497Z,28.03
2018-12-12T10:17:24.568Z,27.27
2018-12-12T10:19:52.611Z,30.97
2018-12-12T10:22:20.667Z,28.33
2018-12-12T10:24:48.722Z,25.87
2018-12-12T10:27:16.783Z,25.90
2018-12-12T10:29:44.864Z,27.70
2018-12-12T10:32:12.977Z,27.57
2018-12-12T10:34:41.028Z,25.07
2018-12-12T10:37:09.104Z,29.13
2018-12-12T10:39:37.161Z,30.23
2018-12-12T10:42:05.313Z,25.43
2018-12-12T10:44:33.518Z,26.37
2018-12-12T10:47:01.685Z,26.47
2018-12-12T10:49:29.749Z,24.20
2018-12-12T10:51:57.821Z,23.73
2018-12-12T10:54:25.876Z,26.07
2018-12-12T10:56:53.954Z,24.93
2018-12-12T10:59:22.021Z,28.17
2018-12-12T11:01:52.149Z,27.30
2018-12-12T11:04:20.201Z,25.73
2018-12-12T11:06:48.274Z,25.23
2018-12-12T11:09:16.339Z,26.33
2018-12-12T11:11:44.385Z,25.70
2018-12-12T11:14:12.446Z,26.33
2018-12-12T11:16:40.649Z,28.50
2018-12-12T11:19:08.691Z,25.70
2018-12-12T11:21:36.767Z,28.47
2018-12-12T11:24:04.848Z,28.77
2018-12-12T11:26:36.347Z,26.70
2018-12-12T11:29:04.398Z,26.27
2018-12-12T11:31:32.484Z,27.17
2018-12-12T11:34:00.553Z,34.70
2018-12-12T11:36:28.626Z,28.30
2018-12-12T11:38:56.668Z,27.47
2018-12-12T11:41:24.753Z,30.33
2018-12-12T11:43:52.896Z,27.03
2018-12-12T11:46:20.944Z,26.30
2018-12-12T11:48:49.030Z,27.27
2018-12-12T11:51:17.092Z,27.00
2018-12-12T11:53:45.157Z,31.07
2018-12-12T11:56:13.254Z,24.17
2018-12-12T11:58:41.290Z,30.10
2018-12-12T12:01:09.347Z,27.17
2018-12-12T12:03:37.399Z,26.10
2018-12-12T12:06:05.502Z,25.97
2018-12-12T12:08:33.601Z,32.93
2018-12-12T12:11:01.675Z,28.53
2018-12-12T12:13:29.759Z,33.27
2018-12-12T12:15:57.802Z,26.00
2018-12-12T12:18:25.893Z,28.53
2018-12-12T12:20:53.946Z,25.60
2018-12-12T12:23:21.993Z,26.60
2018-12-12T12:25:50.073Z,27.77
2018-12-12T12:28:18.145Z,25.57
2018-12-12T12:30:46.261Z,24.57
2018-12-12T12:33:14.310Z,32.43
2018-12-12T12:35:42.407Z,30.50
2018-12-12T12:38:10.459Z,29.33
2018-12-12T12:40:38.544Z,31.80
2018-12-12T12:43:06.665Z,31.60
2018-12-12T12:45:34.715Z,30.63
2018-12-12T12:48:02.813Z,25.50
2018-12-12T12:50:30.867Z,31.50
2018-12-12T12:52:58.932Z,29.60
2018-12-12T12:55:26.984Z,28.17
2018-12-12T12:57:55.073Z,31.70
2018-12-12T13:00:23.158Z,35.63
2018-12-12T13:02:51.200Z,30.43
2018-12-12T13:05:19.290Z,31.77
2018-12-12T13:07:47.350Z,27.70
2018-12-12T13:10:15.566Z,29.73
2018-12-12T13:12:44.443Z,26.63
2018-12-12T13:15:12.747Z,30.50
2018-12-12T13:17:40.818Z,26.70
2018-12-12T13:20:08.876Z,27.77
2018-12-12T13:22:36.946Z,25.53
2018-12-12T13:25:05.019Z,30.70
2018-12-12T13:27:33.067Z,31.10
2018-12-12T13:30:01.145Z,27.50
2018-12-12T13:32:29.195Z,29.20
2018-12-12T13:34:57.239Z,29.03
2018-12-12T13:37:25.299Z,30.97
2018-12-12T13:39:53.341Z,26.57
2018-12-12T13:42:21.588Z,26.57
2018-12-12T13:44:49.629Z,26.30
2018-12-12T13:47:17.674Z,30.87
2018-12-12T13:49:45.764Z,27.00
2018-12-12T13:52:13.837Z,27.93
2018-12-12T13:54:41.882Z,28.53
2018-12-12T13:57:09.937Z,25.70
2018-12-12T13:59:37.996Z,25.53
2018-12-12T14:02:06.091Z,28.93
2018-12-12T14:04:34.142Z,27.07
2018-12-12T14:07:02.199Z,25.43
2018-12-12T14:09:30.258Z,24.93
2018-12-12T14:11:58.389Z,24.27
2018-12-12T14:14:26.930Z,26.30
2018-12-12T14:16:54.961Z,31.27
2018-12-12T14:19:23.045Z,26.73
2018-12-12T14:21:51.117Z,27.63
2018-12-12T14:24:19.175Z,33.33
2018-12-12T14:26:47.241Z,28.90
2018-12-12T14:29:15.313Z,29.37
2018-12-12T14:31:43.401Z,29.47
2018-12-12T14:34:11.441Z,26.73
2018-12-12T14:36:39.647Z,30.37
2018-12-12T14:39:07.743Z,32.37
2018-12-12T14:41:35.799Z,27.80
2018-12-12T14:44:03.862Z,32.97
2018-12-12T14:46:31.963Z,27.87
2018-12-12T14:49:00.019Z,28.20
2018-12-12T14:51:28.070Z,27.67
2018-12-12T14:53:56.164Z,26.90
2018-12-12T14:56:24.209Z,28.03
2018-12-12T14:58:52.291Z,30.87
2018-12-12T15:01:20.359Z,36.57
2018-12-12T15:03:48.453Z,30.07
2018-12-12T15:06:16.548Z,29.87
2018-12-12T15:08:44.626Z,32.70
2018-12-12T15:11:12.725Z,31.03
2018-12-12T15:13:40.798Z,31.80
2018-12-12T15:16:08.891Z,29.13
2018-12-12T15:18:37.016Z,29.00
2018-12-12T15:21:05.110Z,29.13
2018-12-12T15:23:33.308Z,28.37
2018-12-12T15:26:01.351Z,30.90
2018-12-12T15:28:29.446Z,30.43
2018-12-12T15:30:57.507Z,26.63
2018-12-12T15:33:25.603Z,27.90
2018-12-12T15:35:53.738Z,28.03
2018-12-12T15:38:21.790Z,28.53
2018-12-12T15:40:49.888Z,23.00
2018-12-12T15:43:17.932Z,23.83
2018-12-12T15:45:46.021Z,26.00
2018-12-12T15:48:14.072Z,26.80
2018-12-12T15:50:42.129Z,25.40
2018-12-12T15:53:10.187Z,26.80
2018-12-12T15:55:38.274Z,31.13
2018-12-12T15:58:06.315Z,30.63
2018-12-12T16:00:34.607Z,32.03
2018-12-12T16:03:02.751Z,27.23
2018-12-12T16:05:30.835Z,30.70
2018-12-12T16:07:58.895Z,26.43
2018-12-12T16:10:26.971Z,25.13
2018-12-12T16:12:55.036Z,25.17
2018-12-12T16:15:23.084Z,28.87
2018-12-12T16:17:51.221Z,28.77
2018-12-12T16:20:19.269Z,28.67
2018-12-12T16:22:47.326Z,23.97
2018-12-12T16:25:15.421Z,25.83
2018-12-12T16:27:43.487Z,26.67
2018-12-12T16:30:11.545Z,27.70
2018-12-12T16:32:39.591Z,25.23
2018-12-12T16:35:07.703Z,27.07
2018-12-12T16:37:35.783Z,28.37
2018-12-12T16:40:03.904Z,28.77
2018-12-12T16:42:31.985Z,29.20
2018-12-12T16:45:00.044Z,28.33
2018-12-12T16:47:28.147Z,26.83
2018-12-12T16:50:02.512Z,29.80
2018-12-12T16:52:30.593Z,24.23
2018-12-12T16:54:58.652Z,27.93
2018-12-12T16:57:26.729Z,26.90
2018-12-12T16:59:54.789Z,29.67
2018-12-12T17:02:22.858Z,33.80
2018-12-12T17:04:50.912Z,29.77
2018-12-12T17:07:19.015Z,32.03
2018-12-12T17:09:47.062Z,29.93
2018-12-12T17:12:15.129Z,27.67
2018-12-12T17:14:43.269Z,29.47
2018-12-12T17:17:11.326Z,29.00
2018-12-12T17:19:39.430Z,28.33
2018-12-12T17:22:07.497Z,27.00
2018-12-12T17:24:35.538Z,26.33
2018-12-12T17:27:03.633Z,25.47
2018-12-12T17:29:31.707Z,26.07
2018-12-12T17:31:59.852Z,23.23
2018-12-12T17:34:27.911Z,23.90
2018-12-12T17:36:56.008Z,25.57
2018-12-12T17:39:24.066Z,18.67
2018-12-12T17:41:52.118Z,19.67
2018-12-12T17:44:20.217Z,13.50
2018-12-12T17:46:48.392Z,13.83
2018-12-12T17:49:16.489Z,12.57
2018-12-12T17:51:44.590Z,10.63
2018-12-12T17:54:12.683Z,12.00
2018-12-12T17:56:40.716Z,12.33
2018-12-12T17:59:08.750Z,12.27
2018-12-12T18:01:36.848Z,12.27
2018-12-12T18:04:04.903Z,11.43
2018-12-12T18:06:32.967Z,8.97
2018-12-12T18:09:01.000Z,10.50
2018-12-12T18:11:29.079Z,12.00
2018-12-12T18:13:57.116Z,11.00
2018-12-12T18:16:25.228Z,11.07
2018-12-12T18:18:53.274Z,12.67
2018-12-12T18:21:21.344Z,14.13
2018-12-12T18:23:49.396Z,13.10
2018-12-12T18:26:17.458Z,12.73
2018-12-12T18:28:45.526Z,13.70
2018-12-12T18:31:13.575Z,11.03
2018-12-12T18:33:41.653Z,11.80
2018-12-12T18:36:09.764Z,8.40
2018-12-12T18:38:37.906Z,8.30
2018-12-12T18:41:05.996Z,9.10
2018-12-12T18:43:34.061Z,9.23
2018-12-12T18:46:02.135Z,10.30
2018-12-12T18:48:30.234Z,9.67
2018-12-12T18:50:58.315Z,8.47
2018-12-12T18:53:26.494Z,9.80
2018-12-12T18:55:54.566Z,8.53
2018-12-12T18:58:22.649Z,9.10
2018-12-12T19:00:50.711Z,10.17
2018-12-12T19:03:18.813Z,9.43
2018-12-12T19:05:46.848Z,8.93
2018-12-12T19:08:14.905Z,9.10
2018-12-12T19:10:42.980Z,12.70
2018-12-12T19:13:11.030Z,10.67
2018-12-12T19:15:39.105Z,10.37
2018-12-12T19:18:07.238Z,7.27
2018-12-12T19:20:35.362Z,8.33
2018-12-12T19:23:03.554Z,7.50
2018-12-12T19:25:31.631Z,8.17
2018-12-12T19:27:59.742Z,9.50
2018-12-12T19:30:27.801Z,9.80
2018-12-12T19:32:55.881Z,8.90
2018-12-12T19:35:23.959Z,10.20
2018-12-12T19:37:52.029Z,9.37
2018-12-12T19:40:20.105Z,11.10
2018-12-12T19:42:48.989Z,8.60
2018-12-12T19:45:17.090Z,11.37
2018-12-12T19:47:45.129Z,12.03
2018-12-12T19:50:13.232Z,10.50
2018-12-12T19:52:41.416Z,11.60
2018-12-12T19:55:09.508Z,12.70
2018-12-12T19:57:37.548Z,13.23
2018-12-12T20:00:05.750Z,13.57
2018-12-12T20:02:33.814Z,10.30
2018-12-12T20:05:01.938Z,10.17
2018-12-12T20:07:30.083Z,13.00
2018-12-12T20:09:58.132Z,13.07
2018-12-12T20:12:26.226Z,14.73
2018-12-12T20:14:54.321Z,14.33
2018-12-12T20:17:22.348Z,15.27
2018-12-12T20:19:50.439Z,18.10
2018-12-12T20:22:19.477Z,15.33
2018-12-12T20:24:47.565Z,17.53
2018-12-12T20:27:15.603Z,17.10
2018-12-12T20:29:43.674Z,17.20
2018-12-12T20:32:11.772Z,14.47
2018-12-12T20:34:39.821Z,15.43
2018-12-12T20:37:07.869Z,14.63
2018-12-12T20:39:35.960Z,13.07
2018-12-12T20:42:04.115Z,14.50
2018-12-12T20:44:32.181Z,13.60
2018-12-12T20:47:00.273Z,15.83
2018-12-12T20:49:28.375Z,16.03
2018-12-12T20:51:56.471Z,17.30
2018-12-12T20:54:24.526Z,15.87
2018-12-12T20:56:52.604Z,15.57
2018-12-12T20:59:20.702Z,16.23
2018-12-12T21:01:48.766Z,19.80
2018-12-12T21:04:16.869Z,17.53
2018-12-12T21:06:44.935Z,16.70
2018-12-12T21:09:13.018Z,17.60
2018-12-12T21:11:41.100Z,17.90
2018-12-12T21:14:09.178Z,17.87
2018-12-12T21:16:37.256Z,19.37
2018-12-12T21:19:05.345Z,19.83
2018-12-12T21:21:33.390Z,18.00
2018-12-12T21:24:01.450Z,15.77
2018-12-12T21:26:29.506Z,14.77
2018-12-12T21:28:57.550Z,15.20
2018-12-12T21:31:25.611Z,14.17
2018-12-12T21:33:53.688Z,15.67
2018-12-12T21:36:21.748Z,17.00
2018-12-12T21:38:49.830Z,16.00
2018-12-12T21:41:18.018Z,16.37
2018-12-12T21:43:46.104Z,19.97
2018-12-12T21:46:14.199Z,18.87
2018-12-12T21:48:42.292Z,15.00
2018-12-12T21:51:10.343Z,19.63
2018-12-12T21:53:38.420Z,19.27
2018-12-12T21:56:06.530Z,18.80
2018-12-12T21:58:34.640Z,16.77
2018-12-12T22:01:02.686Z,17.73
2018-12-12T22:03:30.784Z,18.23
2018-12-12T22:05:58.879Z,18.13
2018-12-12T22:08:26.953Z,18.93
2018-12-12T22:10:54.992Z,20.67
2018-12-12T22:13:23.093Z,20.47
2018-12-12T22:15:51.175Z,26.60
2018-12-12T22:18:19.237Z,24.87
2018-12-12T22:20:47.304Z,26.20
2018-12-12T22:23:15.392Z,22.77
2018-12-12T22:25:43.452Z,25.53
2018-12-12T22:28:11.507Z,23.87
2018-12-12T22:30:39.589Z,30.13
2018-12-12T22:33:07.715Z,28.67
2018-12-12T22:35:35.774Z,27.63
2018-12-12T22:38:03.834Z,22.13
2018-12-12T22:40:31.916Z,27.23
2018-12-12T22:42:59.995Z,28.73
2018-12-12T22:45:28.148Z,21.60
2018-12-12T22:47:56.484Z,26.17
2018-12-12T22:50:24.537Z,18.07
2018-12-12T22:52:52.638Z,21.97
2018-12-12T22:55:20.683Z,20.43
2018-12-12T22:57:48.770Z,22.13
2018-12-12T23:02:23.328Z,21.30
2018-12-12T23:04:51.422Z,17.47
2018-12-12T23:07:19.483Z,18.85
2018-12-12T23:09:47.548Z,18.63
2018-12-12T23:12:15.592Z,19.87
2018-12-12T23:14:43.676Z,18.37
2018-12-12T23:17:11.743Z,17.23
2018-12-12T23:19:39.821Z,18.03
2018-12-12T23:22:07.888Z,18.60
2018-12-12T23:24:35.963Z,19.23
2018-12-12T23:27:04.248Z,17.40
2018-12-12T23:29:32.292Z,18.47
2018-12-12T23:32:00.356Z,15.80
2018-12-12T23:34:28.414Z,17.80
2018-12-12T23:36:56.480Z,20.50
2018-12-12T23:39:24.532Z,17.43
2018-12-12T23:41:52.566Z,19.63
2018-12-12T23:44:20.635Z,19.43
2018-12-12T23:46:48.680Z,20.20
2018-12-12T23:49:16.784Z,22.10
2018-12-12T23:51:44.866Z,19.83
2018-12-12T23:54:12.914Z,20.80
2018-12-12T23:56:40.970Z,24.77
2018-12-12T23:59:09.056Z,21.27
